createdAt,value
2023-04-21T00:04:33.292Z,99977.72
2023-04-21T00:09:39.764Z,99970.63
2023-04-21T00:14:45.749Z,99971.53
2023-04-21T00:19:51.946Z,99973.53
2023-04-21T00:24:53.486Z,99975.50
2023-04-21T00:29:55.080Z,99966.75
2023-04-21T00:34:57.844Z,99967.16
2023-04-21T00:39:59.502Z,99969.28
2023-04-21T00:45:01.141Z,99959.66
2023-04-21T00:50:04.321Z,99963.69
2023-04-21T00:55:07.107Z,99948.38
2023-04-21T01:00:10.584Z,99940.03
2023-04-21T01:05:12.765Z,99948.13
2023-04-21T01:10:14.475Z,99945.72
2023-04-21T01:15:17.499Z,99943.47
2023-04-21T01:20:19.046Z,99954.00
2023-04-21T01:25:28.626Z,99951.38
2023-04-21T01:30:39.819Z,99939.91
2023-04-21T01:35:51.899Z,99938.94
2023-04-21T01:40:55.857Z,99928.97
2023-04-21T01:45:57.495Z,99935.28
2023-04-21T01:51:04.014Z,99937.66
2023-04-21T01:56:05.842Z,99947.91
2023-04-21T02:01:12.446Z,99951.78
2023-04-21T02:06:14.147Z,99954.50
2023-04-21T02:11:15.684Z,99962.72
2023-04-21T02:16:26.293Z,99956.19
2023-04-21T02:21:28.531Z,99956.41
2023-04-21T02:26:33.928Z,99960.16
2023-04-21T02:31:46.106Z,99962.72
2023-04-21T02:36:56.081Z,99957.13
2023-04-21T02:42:04.339Z,99962.47
2023-04-21T02:47:05.957Z,99963.84
2023-04-21T02:52:10.237Z,99971.75
2023-04-21T02:57:11.809Z,99971.59
2023-04-21T03:02:14.564Z,99960.19
2023-04-21T03:07:21.974Z,99953.84
2023-04-21T03:12:23.536Z,99950.53
2023-04-21T03:17:25.393Z,99947.41
2023-04-21T03:22:27.909Z,99950.81
2023-04-21T03:27:29.418Z,99958.25
2023-04-21T03:32:33.973Z,99946.50
2023-04-21T03:37:35.621Z,99944.34
2023-04-21T03:42:39.955Z,99935.63
2023-04-21T03:47:41.571Z,99939.81
2023-04-21T03:52:43.143Z,99940.00
2023-04-21T03:57:44.683Z,99933.69
2023-04-21T04:02:46.351Z,99924.72
2023-04-21T04:07:51.953Z,99916.81
2023-04-21T04:12:55.172Z,99913.06
2023-04-21T04:17:56.759Z,99915.31
2023-04-21T04:22:58.353Z,99937.69
2023-04-21T04:27:59.953Z,99922.94
2023-04-21T04:33:04.110Z,99910.00
2023-04-21T04:38:07.572Z,99921.31
2023-04-21T04:43:10.589Z,99925.16
2023-04-21T04:48:12.120Z,99934.56
2023-04-21T04:53:13.607Z,99926.19
2023-04-21T04:58:15.210Z,99939.03
2023-04-21T05:03:16.998Z,99941.56
2023-04-21T05:08:18.621Z,99942.22
2023-04-21T05:13:20.322Z,99952.13
2023-04-21T05:18:23.303Z,99955.03
2023-04-21T05:23:24.913Z,99960.56
2023-04-21T05:28:30.063Z,99965.25
2023-04-21T05:33:32.013Z,99973.50
2023-04-21T05:38:33.670Z,99970.44
2023-04-21T05:43:40.104Z,99980.72
2023-04-21T05:48:41.705Z,99986.16
2023-04-21T05:53:45.202Z,99998.84
2023-04-21T05:58:46.915Z,99989.03
2023-04-21T06:03:51.400Z,99992.81
2023-04-21T06:08:52.994Z,99989.91
2023-04-21T06:13:58.227Z,99990.84
2023-04-21T06:19:00.277Z,99986.63
2023-04-21T06:24:01.950Z,99991.16
2023-04-21T06:29:04.170Z,99980.81
2023-04-21T06:34:05.702Z,99984.91
2023-04-21T06:39:07.221Z,99982.31
2023-04-21T06:44:08.708Z,99982.22
2023-04-21T06:49:11.183Z,99988.72
2023-04-21T06:54:12.748Z,99978.19
2023-04-21T06:59:14.242Z,99969.69
2023-04-21T07:04:16.019Z,99962.09
2023-04-21T07:09:33.731Z,99963.16
2023-04-21T07:14:40.027Z,99961.88
2023-04-21T07:19:41.664Z,99952.47
2023-04-21T07:24:43.238Z,99940.94
2023-04-21T07:29:45.079Z,99925.31
2023-04-21T07:34:48.311Z,99914.38
2023-04-21T07:39:49.940Z,99916.06
2023-04-21T07:44:51.559Z,99907.66
2023-04-21T07:49:53.083Z,99919.41
2023-04-21T07:54:54.681Z,99910.56
2023-04-21T07:59:56.187Z,99908.13
2023-04-21T08:04:57.803Z,99894.38
2023-04-21T08:10:00.251Z,99886.47
2023-04-21T08:15:05.887Z,99864.53
2023-04-21T08:20:08.237Z,99853.53
2023-04-21T08:25:09.901Z,99837.94
2023-04-21T08:30:11.986Z,99827.88
2023-04-21T08:35:13.533Z,99833.53
2023-04-21T08:40:15.167Z,99818.16
2023-04-21T08:45:17.131Z,99802.34
2023-04-21T08:50:19.142Z,99820.56
2023-04-21T08:55:24.393Z,99814.56
2023-04-21T09:00:28.010Z,99807.59
2023-04-21T09:05:33.893Z,99797.44
2023-04-21T09:10:46.335Z,99784.63
2023-04-21T09:15:52.194Z,99764.75
2023-04-21T09:21:08.949Z,99772.16
2023-04-21T09:26:14.114Z,99755.44
2023-04-21T09:31:29.206Z,99762.44
2023-04-21T09:36:31.988Z,99761.22
2023-04-21T09:41:33.888Z,99738.88
2023-04-21T09:46:37.139Z,99775.88
2023-04-21T09:52:05.982Z,99762.69
2023-04-21T09:57:04.372Z,99744.22
2023-04-21T10:02:07.600Z,99724.50
2023-04-21T10:07:10.221Z,99728.09
2023-04-21T10:12:13.966Z,99729.81
2023-04-21T10:17:17.859Z,99711.94
2023-04-21T10:22:30.620Z,99698.22
2023-04-21T10:27:45.486Z,99706.41
2023-04-21T10:32:47.297Z,99736.78
2023-04-21T10:37:52.065Z,99699.59
2023-04-21T10:42:53.779Z,99712.88
2023-04-21T10:47:55.445Z,99698.03
2023-04-21T10:53:11.245Z,99691.16
2023-04-21T10:58:16.664Z,99681.00
2023-04-21T11:03:18.487Z,99657.25
2023-04-21T11:08:20.297Z,99658.09
2023-04-21T11:13:27.338Z,99671.03
2023-04-21T11:18:33.803Z,99635.69
2023-04-21T11:23:35.759Z,99655.03
2023-04-21T11:28:37.310Z,99636.50
2023-04-21T11:33:39.709Z,99645.81
2023-04-21T11:38:41.864Z,99662.13
2023-04-21T11:43:46.168Z,99657.38
2023-04-21T11:49:07.602Z,99650.16
2023-04-21T11:54:11.785Z,99623.66
2023-04-21T11:59:16.672Z,99641.59
2023-04-21T12:04:23.540Z,99621.09
2023-04-21T12:09:26.015Z,99607.81
2023-04-21T12:14:27.561Z,99623.25
2023-04-21T12:19:42.229Z,99614.34
2023-04-21T12:24:44.620Z,99646.03
2023-04-21T12:29:46.139Z,99609.50
2023-04-21T12:34:47.638Z,99647.66
2023-04-21T12:39:49.236Z,99623.88
2023-04-21T12:44:50.769Z,99617.19
2023-04-21T12:49:52.309Z,99586.78
2023-04-21T12:54:54.002Z,99610.81
2023-04-21T12:59:56.001Z,99576.53
2023-04-21T13:04:57.528Z,99592.00
2023-04-21T13:09:59.118Z,99596.41
2023-04-21T13:15:00.657Z,99582.25
2023-04-21T13:20:02.350Z,99585.41
2023-04-21T13:25:04.565Z,99567.06
2023-04-21T13:30:08.686Z,99573.91
2023-04-21T13:35:10.754Z,99582.63
2023-04-21T13:40:12.257Z,99573.69
2023-04-21T13:45:13.837Z,99535.66
2023-04-21T13:50:16.272Z,99559.09
2023-04-21T13:55:17.866Z,99528.13
2023-04-21T14:00:19.702Z,99534.88
2023-04-21T14:05:22.944Z,99528.53
2023-04-21T14:10:24.686Z,99505.88
2023-04-21T14:15:26.336Z,99509.03
2023-04-21T14:20:28.306Z,99482.91
2023-04-21T14:25:32.243Z,99501.63
2023-04-21T14:30:36.099Z,99483.75
2023-04-21T14:35:37.872Z,99482.78
2023-04-21T14:40:39.478Z,99487.16
2023-04-21T14:45:41.309Z,99492.81
2023-04-21T14:50:43.033Z,99505.63
2023-04-21T14:55:44.601Z,99515.16
2023-04-21T15:00:46.326Z,99517.25
2023-04-21T15:05:47.943Z,99575.66
2023-04-21T15:10:49.635Z,99601.53
2023-04-21T15:15:52.191Z,99594.34
2023-04-21T15:20:53.704Z,99571.09
2023-04-21T15:25:56.151Z,99629.91
2023-04-21T15:30:57.701Z,99646.59
2023-04-21T15:35:59.203Z,99641.56
2023-04-21T15:41:01.656Z,99558.38
2023-04-21T15:46:04.431Z,99570.69
2023-04-21T15:51:06.383Z,99567.91
2023-04-21T15:56:07.989Z,99544.72
2023-04-21T16:01:09.934Z,99551.75
2023-04-21T16:06:11.743Z,99562.50
2023-04-21T16:11:13.453Z,99564.97
2023-04-21T16:16:14.987Z,99572.84
2023-04-21T16:21:16.532Z,99573.88
2023-04-21T16:26:18.066Z,99586.78
2023-04-21T16:31:22.391Z,99588.31
2023-04-21T16:36:24.015Z,99589.72
2023-04-21T16:41:25.592Z,99586.69
2023-04-21T16:46:27.198Z,99583.00
2023-04-21T16:51:28.808Z,99584.47
2023-04-21T16:56:32.786Z,99590.84
2023-04-21T17:01:34.457Z,99592.72
2023-04-21T17:06:36.078Z,99581.91
2023-04-21T17:11:39.945Z,99576.97
2023-04-21T17:16:42.071Z,99567.31
2023-04-21T17:21:43.732Z,99563.47
2023-04-21T17:26:45.494Z,99555.19
2023-04-21T17:31:52.438Z,99554.09
2023-04-21T17:36:54.082Z,99553.56
2023-04-21T17:41:55.662Z,99548.84
2023-04-21T17:47:01.393Z,99562.34
2023-04-21T17:52:05.941Z,99579.09
2023-04-21T17:57:07.433Z,99581.78
2023-04-21T18:02:09.116Z,99580.59
2023-04-21T18:07:11.009Z,99594.25
2023-04-21T18:12:12.488Z,99606.16
2023-04-21T18:17:16.018Z,99598.53
2023-04-21T18:22:18.855Z,99602.63
2023-04-21T18:27:20.400Z,99612.31
2023-04-21T18:32:21.959Z,99623.81
2023-04-21T18:37:23.503Z,99609.06
2023-04-21T18:42:26.323Z,99618.34
2023-04-21T18:47:27.913Z,99624.47
2023-04-21T18:52:29.404Z,99635.00
2023-04-21T18:57:30.931Z,99637.34
2023-04-21T19:02:32.896Z,99640.19
2023-04-21T19:07:35.085Z,99644.41
2023-04-21T19:12:36.983Z,99634.75
2023-04-21T19:17:39.653Z,99649.78
2023-04-21T19:22:42.009Z,99650.28
2023-04-21T19:27:44.103Z,99645.31
2023-04-21T19:32:45.725Z,99646.91
2023-04-21T19:37:47.418Z,99651.38
2023-04-21T19:42:48.937Z,99642.97
2023-04-21T19:47:52.598Z,99646.22
2023-04-21T19:52:54.184Z,99647.38
2023-04-21T19:57:55.757Z,99645.06
2023-04-21T20:02:57.387Z,99649.38
2023-04-21T20:07:59.696Z,99635.38
2023-04-21T20:13:01.229Z,99645.19
2023-04-21T20:18:02.790Z,99648.38
2023-04-21T20:23:04.429Z,99645.63
2023-04-21T20:28:05.978Z,99638.91
2023-04-21T20:33:07.582Z,99640.34
2023-04-21T20:38:10.322Z,99636.47
2023-04-21T20:43:12.297Z,99634.09
2023-04-21T20:48:13.860Z,99643.25
2023-04-21T20:53:15.383Z,99652.75
2023-04-21T20:58:16.952Z,99651.44
2023-04-21T21:03:20.360Z,99652.00
2023-04-21T21:08:22.279Z,99646.28
2023-04-21T21:13:25.671Z,99651.53
2023-04-21T21:18:27.173Z,99653.53
2023-04-21T21:23:28.979Z,99649.69
2023-04-21T21:28:30.712Z,99662.47
2023-04-21T21:33:33.310Z,99660.44
2023-04-21T21:38:34.842Z,99666.31
2023-04-21T21:43:36.359Z,99666.81
2023-04-21T21:48:37.940Z,99666.41
2023-04-21T21:53:39.460Z,99667.53
2023-04-21T21:58:41.021Z,99660.53
2023-04-21T22:03:42.887Z,99652.78
2023-04-21T22:08:45.529Z,99647.78
2023-04-21T22:13:47.185Z,99652.22
2023-04-21T22:18:49.067Z,99655.44
2023-04-21T22:23:50.607Z,99641.56
2023-04-21T22:28:54.626Z,99650.22
2023-04-21T22:33:56.295Z,99655.28
2023-04-21T22:38:58.102Z,99659.66
2023-04-21T22:43:59.618Z,99666.88
2023-04-21T22:49:03.084Z,99663.38
2023-04-21T22:54:04.668Z,99659.53
2023-04-21T22:59:06.202Z,99657.84
2023-04-21T23:04:08.308Z,99650.03
2023-04-21T23:09:09.962Z,99658.63
2023-04-21T23:14:11.470Z,99649.25
2023-04-21T23:19:12.971Z,99653.88
2023-04-21T23:24:14.546Z,99650.28
2023-04-21T23:29:16.045Z,99643.38
2023-04-21T23:34:17.559Z,99651.47
2023-04-21T23:39:21.483Z,99646.47
2023-04-21T23:44:23.046Z,99636.25
2023-04-21T23:49:24.589Z,99632.34
2023-04-21T23:54:28.209Z,99630.22
2023-04-21T23:59:29.709Z,99624.25
